sensor_id;sensor_type;location;lat;lon;timestamp;temperature;humidity
19058;DHT22;9662;53.612;9.914;2022-07-29T00:01:23;15.90;99.90
19058;DHT22;9662;53.612;9.914;2022-07-29T00:03:50;15.70;99.90
19058;DHT22;9662;53.612;9.914;2022-07-29T00:06:17;15.80;99.90
19058;DHT22;9662;53.612;9.914;2022-07-29T00:08:43;15.60;99.90
19058;DHT22;9662;53.612;9.914;2022-07-29T00:11:11;15.50;99.90
19058;DHT22;9662;53.612;9.914;2022-07-29T00:13:38;15.30;99.90
19058;DHT22;9662;53.612;9.914;2022-07-29T00:16:05;15.30;99.90
19058;DHT22;9662;53.612;9.914;2022-07-29T00:18:32;15.40;99.90
19058;DHT22;9662;53.612;9.914;2022-07-29T00:20:59;15.30;99.90
19058;DHT22;9662;53.612;9.914;2022-07-29T00:23:26;15.20;99.90
19058;DHT22;9662;53.612;9.914;2022-07-29T00:25:52;15.60;99.90
19058;DHT22;9662;53.612;9.914;2022-07-29T00:28:21;15.20;99.90
19058;DHT22;9662;53.612;9.914;2022-07-29T00:30:47;15.40;99.90
19058;DHT22;9662;53.612;9.914;2022-07-29T00:33:14;15.50;99.90
19058;DHT22;9662;53.612;9.914;2022-07-29T00:35:41;15.30;99.90
19058;DHT22;9662;53.612;9.914;2022-07-29T00:38:10;15.30;99.90
19058;DHT22;9662;53.612;9.914;2022-07-29T00:40:37;15.40;99.90
19058;DHT22;9662;53.612;9.914;2022-07-29T00:43:04;15.50;99.90
19058;DHT22;9662;53.612;9.914;2022-07-29T00:45:32;15.30;99.90
19058;DHT22;9662;53.612;9.914;2022-07-29T00:47:59;15.30;99.90
19058;DHT22;9662;53.612;9.914;2022-07-29T00:50:26;15.30;99.90
19058;DHT22;9662;53.612;9.914;2022-07-29T00:52:53;15.10;99.90
19058;DHT22;9662;53.612;9.914;2022-07-29T00:55:20;15.20;99.90
19058;DHT22;9662;53.612;9.914;2022-07-29T00:57:47;15.00;99.90
19058;DHT22;9662;53.612;9.914;2022-07-29T01:00:16;15.00;99.90
19058;DHT22;9662;53.612;9.914;2022-07-29T01:02:47;15.00;99.90
19058;DHT22;9662;53.612;9.914;2022-07-29T01:05:16;15.50;99.90
19058;DHT22;9662;53.612;9.914;2022-07-29T01:07:44;15.10;99.90
19058;DHT22;9662;53.612;9.914;2022-07-29T01:10:13;15.30;99.90
19058;DHT22;9662;53.612;9.914;2022-07-29T01:12:43;15.30;99.90
19058;DHT22;9662;53.612;9.914;2022-07-29T01:17:42;17.10;99.90
19058;DHT22;9662;53.612;9.914;2022-07-29T01:20:17;15.10;99.90
19058;DHT22;9662;53.612;9.914;2022-07-29T01:23:19;15.20;99.90
19058;DHT22;9662;53.612;9.914;2022-07-29T01:26:07;15.10;99.90
19058;DHT22;9662;53.612;9.914;2022-07-29T01:28:49;15.10;99.90
19058;DHT22;9662;53.612;9.914;2022-07-29T01:31:20;15.10;99.90
19058;DHT22;9662;53.612;9.914;2022-07-29T01:33:52;15.10;99.90
19058;DHT22;9662;53.612;9.914;2022-07-29T01:36:24;15.00;99.90
19058;DHT22;9662;53.612;9.914;2022-07-29T01:38:57;15.00;99.90
19058;DHT22;9662;53.612;9.914;2022-07-29T01:41:28;14.90;99.90
19058;DHT22;9662;53.612;9.914;2022-07-29T01:44:02;15.30;99.90
19058;DHT22;9662;53.612;9.914;2022-07-29T01:46:36;15.00;99.90
19058;DHT22;9662;53.612;9.914;2022-07-29T01:49:08;14.90;99.90
19058;DHT22;9662;53.612;9.914;2022-07-29T01:51:41;14.90;99.90
19058;DHT22;9662;53.612;9.914;2022-07-29T01:54:13;14.90;99.90
19058;DHT22;9662;53.612;9.914;2022-07-29T01:56:42;14.70;99.90
19058;DHT22;9662;53.612;9.914;2022-07-29T01:59:11;15.00;99.90
19058;DHT22;9662;53.612;9.914;2022-07-29T02:01:40;14.80;99.90
19058;DHT22;9662;53.612;9.914;2022-07-29T02:04:10;14.90;99.90
19058;DHT22;9662;53.612;9.914;2022-07-29T02:06:38;14.80;99.90
19058;DHT22;9662;53.612;9.914;2022-07-29T02:09:07;14.80;99.90
19058;DHT22;9662;53.612;9.914;2022-07-29T02:11:36;14.60;99.90
19058;DHT22;9662;53.612;9.914;2022-07-29T02:14:05;14.50;99.90
19058;DHT22;9662;53.612;9.914;2022-07-29T02:16:36;14.60;99.90
19058;DHT22;9662;53.612;9.914;2022-07-29T02:19:05;14.60;99.90
19058;DHT22;9662;53.612;9.914;2022-07-29T02:21:35;14.50;99.90
19058;DHT22;9662;53.612;9.914;2022-07-29T02:24:02;14.60;99.90
19058;DHT22;9662;53.612;9.914;2022-07-29T02:26:31;14.50;99.90
19058;DHT22;9662;53.612;9.914;2022-07-29T02:28:59;14.80;99.90
19058;DHT22;9662;53.612;9.914;2022-07-29T02:31:30;14.80;99.90
19058;DHT22;9662;53.612;9.914;2022-07-29T02:34:00;14.90;99.90
19058;DHT22;9662;53.612;9.914;2022-07-29T02:36:29;14.90;99.90
19058;DHT22;9662;53.612;9.914;2022-07-29T02:38:56;15.00;99.90
19058;DHT22;9662;53.612;9.914;2022-07-29T02:41:28;14.80;99.90
19058;DHT22;9662;53.612;9.914;2022-07-29T02:43:58;14.90;99.90
19058;DHT22;9662;53.612;9.914;2022-07-29T02:46:31;14.90;99.90
19058;DHT22;9662;53.612;9.914;2022-07-29T02:49:04;14.80;99.90
19058;DHT22;9662;53.612;9.914;2022-07-29T02:51:40;15.00;99.90
19058;DHT22;9662;53.612;9.914;2022-07-29T02:54:09;15.10;99.90
19058;DHT22;9662;53.612;9.914;2022-07-29T02:56:38;15.00;99.90
19058;DHT22;9662;53.612;9.914;2022-07-29T02:59:08;14.80;99.90
19058;DHT22;9662;53.612;9.914;2022-07-29T03:01:39;15.00;99.90
19058;DHT22;9662;53.612;9.914;2022-07-29T03:04:09;15.10;99.90
19058;DHT22;9662;53.612;9.914;2022-07-29T03:06:38;15.10;99.90
19058;DHT22;9662;53.612;9.914;2022-07-29T03:09:07;15.10;99.90
19058;DHT22;9662;53.612;9.914;2022-07-29T03:11:36;15.20;99.90
19058;DHT22;9662;53.612;9.914;2022-07-29T03:14:04;15.00;99.90
19058;DHT22;9662;53.612;9.914;2022-07-29T03:16:33;15.10;99.90
19058;DHT22;9662;53.612;9.914;2022-07-29T03:19:03;15.00;99.90
19058;DHT22;9662;53.612;9.914;2022-07-29T03:21:31;15.10;99.90
19058;DHT22;9662;53.612;9.914;2022-07-29T03:23:58;14.90;99.90
19058;DHT22;9662;53.612;9.914;2022-07-29T03:26:25;15.20;99.90
19058;DHT22;9662;53.612;9.914;2022-07-29T03:28:52;15.30;99.90
19058;DHT22;9662;53.612;9.914;2022-07-29T03:31:18;15.10;99.90
19058;DHT22;9662;53.612;9.914;2022-07-29T03:33:45;15.00;99.90
19058;DHT22;9662;53.612;9.914;2022-07-29T03:36:12;15.30;99.90
19058;DHT22;9662;53.612;9.914;2022-07-29T03:38:42;15.40;99.90
19058;DHT22;9662;53.612;9.914;2022-07-29T03:41:11;15.40;99.90
19058;DHT22;9662;53.612;9.914;2022-07-29T03:43:41;15.40;99.90
19058;DHT22;9662;53.612;9.914;2022-07-29T03:46:10;15.50;99.90
19058;DHT22;9662;53.612;9.914;2022-07-29T03:48:42;15.40;99.90
19058;DHT22;9662;53.612;9.914;2022-07-29T03:51:13;15.40;99.90
19058;DHT22;9662;53.612;9.914;2022-07-29T03:53:41;15.40;99.90
19058;DHT22;9662;53.612;9.914;2022-07-29T03:56:09;15.60;99.90
19058;DHT22;9662;53.612;9.914;2022-07-29T03:58:37;15.50;99.90
19058;DHT22;9662;53.612;9.914;2022-07-29T04:01:05;15.50;99.90
19058;DHT22;9662;53.612;9.914;2022-07-29T04:03:32;15.40;99.90
19058;DHT22;9662;53.612;9.914;2022-07-29T04:06:00;15.50;99.90
19058;DHT22;9662;53.612;9.914;2022-07-29T04:08:27;15.70;99.90
19058;DHT22;9662;53.612;9.914;2022-07-29T04:10:55;15.60;99.90
19058;DHT22;9662;53.612;9.914;2022-07-29T04:13:22;15.60;99.90
19058;DHT22;9662;53.612;9.914;2022-07-29T04:15:49;15.90;99.90
19058;DHT22;9662;53.612;9.914;2022-07-29T04:18:15;15.70;99.90
19058;DHT22;9662;53.612;9.914;2022-07-29T04:20:42;15.90;99.90
19058;DHT22;9662;53.612;9.914;2022-07-29T04:23:09;15.90;99.90
19058;DHT22;9662;53.612;9.914;2022-07-29T04:25:37;16.00;99.90
19058;DHT22;9662;53.612;9.914;2022-07-29T04:28:06;16.20;99.90
19058;DHT22;9662;53.612;9.914;2022-07-29T04:30:34;15.90;99.90
19058;DHT22;9662;53.612;9.914;2022-07-29T04:33:02;16.00;99.90
19058;DHT22;9662;53.612;9.914;2022-07-29T04:35:30;16.10;99.90
19058;DHT22;9662;53.612;9.914;2022-07-29T04:37:57;16.20;99.90
19058;DHT22;9662;53.612;9.914;2022-07-29T04:40:24;16.30;99.90
19058;DHT22;9662;53.612;9.914;2022-07-29T04:42:50;16.20;99.90
19058;DHT22;9662;53.612;9.914;2022-07-29T04:45:19;16.20;99.90
19058;DHT22;9662;53.612;9.914;2022-07-29T04:47:45;16.50;99.90
19058;DHT22;9662;53.612;9.914;2022-07-29T04:50:12;16.70;99.90
19058;DHT22;9662;53.612;9.914;2022-07-29T04:52:39;17.00;99.90
19058;DHT22;9662;53.612;9.914;2022-07-29T04:55:06;16.70;99.90
19058;DHT22;9662;53.612;9.914;2022-07-29T04:57:33;16.70;99.90
19058;DHT22;9662;53.612;9.914;2022-07-29T05:00:00;16.80;99.90
19058;DHT22;9662;53.612;9.914;2022-07-29T05:02:28;16.80;99.90
19058;DHT22;9662;53.612;9.914;2022-07-29T05:04:55;16.80;99.90
19058;DHT22;9662;53.612;9.914;2022-07-29T05:07:21;16.80;99.90
19058;DHT22;9662;53.612;9.914;2022-07-29T05:09:48;16.60;99.90
19058;DHT22;9662;53.612;9.914;2022-07-29T05:12:15;16.50;99.90
19058;DHT22;9662;53.612;9.914;2022-07-29T05:14:42;16.50;99.90
19058;DHT22;9662;53.612;9.914;2022-07-29T05:17:08;16.40;99.90
19058;DHT22;9662;53.612;9.914;2022-07-29T05:19:36;16.60;99.90
19058;DHT22;9662;53.612;9.914;2022-07-29T05:22:03;16.60;99.90
19058;DHT22;9662;53.612;9.914;2022-07-29T05:24:30;16.70;99.90
19058;DHT22;9662;53.612;9.914;2022-07-29T05:26:57;16.50;99.90
19058;DHT22;9662;53.612;9.914;2022-07-29T05:29:24;16.60;99.90
19058;DHT22;9662;53.612;9.914;2022-07-29T05:31:51;16.60;99.90
19058;DHT22;9662;53.612;9.914;2022-07-29T05:34:18;16.50;99.90
19058;DHT22;9662;53.612;9.914;2022-07-29T05:36:46;16.70;99.90
19058;DHT22;9662;53.612;9.914;2022-07-29T05:39:13;17.00;99.90
19058;DHT22;9662;53.612;9.914;2022-07-29T05:49:01;16.80;99.90
19058;DHT22;9662;53.612;9.914;2022-07-29T05:51:28;17.10;99.90
19058;DHT22;9662;53.612;9.914;2022-07-29T05:53:56;17.60;99.90
19058;DHT22;9662;53.612;9.914;2022-07-29T05:56:23;17.60;99.90
19058;DHT22;9662;53.612;9.914;2022-07-29T05:58:51;17.50;99.90
19058;DHT22;9662;53.612;9.914;2022-07-29T06:01:18;17.60;99.90
19058;DHT22;9662;53.612;9.914;2022-07-29T06:03:44;17.80;99.90
19058;DHT22;9662;53.612;9.914;2022-07-29T06:06:12;18.10;99.90
19058;DHT22;9662;53.612;9.914;2022-07-29T06:08:38;18.20;99.90
19058;DHT22;9662;53.612;9.914;2022-07-29T06:11:07;18.40;99.90
19058;DHT22;9662;53.612;9.914;2022-07-29T06:13:34;18.60;99.90
19058;DHT22;9662;53.612;9.914;2022-07-29T06:16:01;18.50;99.90
19058;DHT22;9662;53.612;9.914;2022-07-29T06:18:27;18.30;99.90
19058;DHT22;9662;53.612;9.914;2022-07-29T06:20:54;18.40;99.90
19058;DHT22;9662;53.612;9.914;2022-07-29T06:23:21;18.70;99.90
19058;DHT22;9662;53.612;9.914;2022-07-29T06:25:48;19.10;99.90
19058;DHT22;9662;53.612;9.914;2022-07-29T06:28:16;19.40;99.90
19058;DHT22;9662;53.612;9.914;2022-07-29T06:30:43;20.00;99.90
19058;DHT22;9662;53.612;9.914;2022-07-29T06:33:09;21.20;99.90
19058;DHT22;9662;53.612;9.914;2022-07-29T06:35:42;21.80;99.90
19058;DHT22;9662;53.612;9.914;2022-07-29T06:38:09;21.30;99.90
19058;DHT22;9662;53.612;9.914;2022-07-29T06:40:36;21.30;99.90
19058;DHT22;9662;53.612;9.914;2022-07-29T06:43:25;20.90;99.90
19058;DHT22;9662;53.612;9.914;2022-07-29T06:45:53;20.70;99.90
19058;DHT22;9662;53.612;9.914;2022-07-29T06:48:20;20.80;99.90
19058;DHT22;9662;53.612;9.914;2022-07-29T06:50:47;20.60;99.90
19058;DHT22;9662;53.612;9.914;2022-07-29T06:53:13;20.50;99.90
19058;DHT22;9662;53.612;9.914;2022-07-29T06:55:40;20.40;99.90
19058;DHT22;9662;53.612;9.914;2022-07-29T06:58:07;20.30;99.90
19058;DHT22;9662;53.612;9.914;2022-07-29T07:00:36;20.50;99.90
19058;DHT22;9662;53.612;9.914;2022-07-29T07:03:03;20.60;99.90
19058;DHT22;9662;53.612;9.914;2022-07-29T07:05:29;20.80;99.90
19058;DHT22;9662;53.612;9.914;2022-07-29T07:07:56;21.70;99.90
19058;DHT22;9662;53.612;9.914;2022-07-29T07:10:23;22.30;99.90
19058;DHT22;9662;53.612;9.914;2022-07-29T07:12:50;22.30;99.90
19058;DHT22;9662;53.612;9.914;2022-07-29T07:15:16;22.70;99.90
19058;DHT22;9662;53.612;9.914;2022-07-29T07:17:48;23.00;99.80
19058;DHT22;9662;53.612;9.914;2022-07-29T07:20:15;23.90;98.60
19058;DHT22;9662;53.612;9.914;2022-07-29T07:22:42;24.20;96.60
19058;DHT22;9662;53.612;9.914;2022-07-29T07:25:09;24.00;96.70
19058;DHT22;9662;53.612;9.914;2022-07-29T07:27:36;23.70;96.70
19058;DHT22;9662;53.612;9.914;2022-07-29T07:30:04;23.10;96.50
19058;DHT22;9662;53.612;9.914;2022-07-29T07:32:32;23.20;97.50
19058;DHT22;9662;53.612;9.914;2022-07-29T07:35:00;23.20;97.00
19058;DHT22;9662;53.612;9.914;2022-07-29T07:37:27;23.20;97.50
19058;DHT22;9662;53.612;9.914;2022-07-29T07:39:53;23.10;97.00
19058;DHT22;9662;53.612;9.914;2022-07-29T07:42:20;22.40;97.80
19058;DHT22;9662;53.612;9.914;2022-07-29T07:44:47;21.80;99.50
19058;DHT22;9662;53.612;9.914;2022-07-29T07:47:14;21.50;99.90
19058;DHT22;9662;53.612;9.914;2022-07-29T07:49:45;21.60;99.90
19058;DHT22;9662;53.612;9.914;2022-07-29T07:52:14;21.50;99.90
19058;DHT22;9662;53.612;9.914;2022-07-29T07:54:41;21.80;99.90
19058;DHT22;9662;53.612;9.914;2022-07-29T07:57:09;21.70;99.90
19058;DHT22;9662;53.612;9.914;2022-07-29T07:59:36;21.40;99.90
19058;DHT22;9662;53.612;9.914;2022-07-29T08:02:03;21.50;99.90
19058;DHT22;9662;53.612;9.914;2022-07-29T08:04:30;21.60;99.90
19058;DHT22;9662;53.612;9.914;2022-07-29T08:06:58;21.90;99.90
19058;DHT22;9662;53.612;9.914;2022-07-29T08:09:27;21.80;99.90
19058;DHT22;9662;53.612;9.914;2022-07-29T08:11:55;21.70;99.90
19058;DHT22;9662;53.612;9.914;2022-07-29T08:14:22;21.50;99.90
19058;DHT22;9662;53.612;9.914;2022-07-29T08:16:48;21.70;99.90
19058;DHT22;9662;53.612;9.914;2022-07-29T08:19:16;21.80;99.90
19058;DHT22;9662;53.612;9.914;2022-07-29T08:21:43;22.20;99.90
19058;DHT22;9662;53.612;9.914;2022-07-29T08:24:10;22.00;99.90
19058;DHT22;9662;53.612;9.914;2022-07-29T08:26:56;22.20;99.90
19058;DHT22;9662;53.612;9.914;2022-07-29T08:29:22;22.50;99.50
19058;DHT22;9662;53.612;9.914;2022-07-29T08:31:49;23.00;99.20
19058;DHT22;9662;53.612;9.914;2022-07-29T08:34:16;22.90;97.30
19058;DHT22;9662;53.612;9.914;2022-07-29T08:36:43;23.20;98.40
19058;DHT22;9662;53.612;9.914;2022-07-29T08:39:09;23.30;97.90
19058;DHT22;9662;53.612;9.914;2022-07-29T08:41:36;23.30;97.40
19058;DHT22;9662;53.612;9.914;2022-07-29T08:44:04;23.20;97.30
19058;DHT22;9662;53.612;9.914;2022-07-29T08:46:31;23.30;98.30
19058;DHT22;9662;53.612;9.914;2022-07-29T08:48:58;23.40;96.60
19058;DHT22;9662;53.612;9.914;2022-07-29T08:51:25;23.20;97.50
19058;DHT22;9662;53.612;9.914;2022-07-29T08:53:54;23.20;97.70
19058;DHT22;9662;53.612;9.914;2022-07-29T08:56:21;23.00;99.00
19058;DHT22;9662;53.612;9.914;2022-07-29T08:58:49;23.00;97.50
19058;DHT22;9662;53.612;9.914;2022-07-29T09:01:21;22.80;98.30
19058;DHT22;9662;53.612;9.914;2022-07-29T09:03:49;22.90;97.20
19058;DHT22;9662;53.612;9.914;2022-07-29T09:06:18;23.10;98.30
19058;DHT22;9662;53.612;9.914;2022-07-29T09:08:45;22.90;96.20
19058;DHT22;9662;53.612;9.914;2022-07-29T09:11:13;22.90;96.70
19058;DHT22;9662;53.612;9.914;2022-07-29T09:13:40;22.70;97.60
19058;DHT22;9662;53.612;9.914;2022-07-29T09:16:07;22.60;96.90
19058;DHT22;9662;53.612;9.914;2022-07-29T09:18:36;22.40;97.00
19058;DHT22;9662;53.612;9.914;2022-07-29T09:21:04;22.50;98.60
19058;DHT22;9662;53.612;9.914;2022-07-29T09:24:05;22.40;97.00
19058;DHT22;9662;53.612;9.914;2022-07-29T09:26:34;22.50;97.00
19058;DHT22;9662;53.612;9.914;2022-07-29T09:29:08;22.20;95.90
19058;DHT22;9662;53.612;9.914;2022-07-29T09:31:37;22.20;96.30
19058;DHT22;9662;53.612;9.914;2022-07-29T09:34:07;22.50;95.40
19058;DHT22;9662;53.612;9.914;2022-07-29T09:36:39;22.70;95.50
19058;DHT22;9662;53.612;9.914;2022-07-29T09:39:06;22.60;96.70
19058;DHT22;9662;53.612;9.914;2022-07-29T09:41:45;22.80;96.00
19058;DHT22;9662;53.612;9.914;2022-07-29T09:44:12;23.00;95.70
19058;DHT22;9662;53.612;9.914;2022-07-29T09:46:40;23.00;95.80
19058;DHT22;9662;53.612;9.914;2022-07-29T09:49:11;23.10;95.00
19058;DHT22;9662;53.612;9.914;2022-07-29T09:51:39;23.20;94.80
19058;DHT22;9662;53.612;9.914;2022-07-29T09:54:31;23.30;94.50
19058;DHT22;9662;53.612;9.914;2022-07-29T09:57:02;23.60;93.30
19058;DHT22;9662;53.612;9.914;2022-07-29T09:59:29;23.80;93.50
19058;DHT22;9662;53.612;9.914;2022-07-29T10:01:56;23.90;93.80
19058;DHT22;9662;53.612;9.914;2022-07-29T10:04:36;24.10;92.40
19058;DHT22;9662;53.612;9.914;2022-07-29T10:07:04;24.40;91.60
19058;DHT22;9662;53.612;9.914;2022-07-29T10:09:31;24.70;91.40
19058;DHT22;9662;53.612;9.914;2022-07-29T10:12:06;24.60;91.40
19058;DHT22;9662;53.612;9.914;2022-07-29T10:14:33;24.80;90.40
19058;DHT22;9662;53.612;9.914;2022-07-29T10:17:01;24.50;90.70
19058;DHT22;9662;53.612;9.914;2022-07-29T10:19:31;24.60;90.10
19058;DHT22;9662;53.612;9.914;2022-07-29T10:21:59;24.50;90.50
19058;DHT22;9662;53.612;9.914;2022-07-29T10:24:26;24.90;90.50
19058;DHT22;9662;53.612;9.914;2022-07-29T10:26:54;25.00;88.80
19058;DHT22;9662;53.612;9.914;2022-07-29T10:29:22;25.20;90.00
19058;DHT22;9662;53.612;9.914;2022-07-29T10:31:57;25.50;90.70
19058;DHT22;9662;53.612;9.914;2022-07-29T10:34:35;25.60;90.10
19058;DHT22;9662;53.612;9.914;2022-07-29T10:37:08;25.30;88.30
19058;DHT22;9662;53.612;9.914;2022-07-29T10:39:46;25.50;87.60
19058;DHT22;9662;53.612;9.914;2022-07-29T10:42:21;25.20;88.60
19058;DHT22;9662;53.612;9.914;2022-07-29T10:44:50;25.30;87.30
19058;DHT22;9662;53.612;9.914;2022-07-29T10:47:22;25.30;89.20
19058;DHT22;9662;53.612;9.914;2022-07-29T10:49:57;25.30;87.40
19058;DHT22;9662;53.612;9.914;2022-07-29T10:52:25;25.30;87.40
19058;DHT22;9662;53.612;9.914;2022-07-29T10:55:31;25.20;85.80
19058;DHT22;9662;53.612;9.914;2022-07-29T10:58:12;25.30;88.00
19058;DHT22;9662;53.612;9.914;2022-07-29T11:00:39;25.30;87.90
19058;DHT22;9662;53.612;9.914;2022-07-29T11:03:05;25.30;86.90
19058;DHT22;9662;53.612;9.914;2022-07-29T11:05:55;25.40;85.50
19058;DHT22;9662;53.612;9.914;2022-07-29T11:08:25;25.50;86.00
19058;DHT22;9662;53.612;9.914;2022-07-29T11:11:30;25.60;83.80
19058;DHT22;9662;53.612;9.914;2022-07-29T11:13:50;25.30;83.80
19058;DHT22;9662;53.612;9.914;2022-07-29T11:16:18;25.50;85.80
19058;DHT22;9662;53.612;9.914;2022-07-29T11:19:21;25.50;83.90
19058;DHT22;9662;53.612;9.914;2022-07-29T11:21:49;25.50;84.40
19058;DHT22;9662;53.612;9.914;2022-07-29T11:24:20;25.50;82.50
19058;DHT22;9662;53.612;9.914;2022-07-29T11:27:07;25.60;81.40
19058;DHT22;9662;53.612;9.914;2022-07-29T11:29:36;25.80;82.20
19058;DHT22;9662;53.612;9.914;2022-07-29T11:32:09;25.60;82.30
19058;DHT22;9662;53.612;9.914;2022-07-29T11:34:36;26.00;85.70
19058;DHT22;9662;53.612;9.914;2022-07-29T11:37:25;26.50;83.80
19058;DHT22;9662;53.612;9.914;2022-07-29T11:40:15;26.30;81.20
19058;DHT22;9662;53.612;9.914;2022-07-29T11:42:45;26.20;75.70
19058;DHT22;9662;53.612;9.914;2022-07-29T11:45:17;26.10;78.20
19058;DHT22;9662;53.612;9.914;2022-07-29T11:47:49;25.90;81.10
19058;DHT22;9662;53.612;9.914;2022-07-29T11:50:26;25.90;78.70
19058;DHT22;9662;53.612;9.914;2022-07-29T11:52:55;25.90;75.90
19058;DHT22;9662;53.612;9.914;2022-07-29T11:55:23;26.00;77.40
19058;DHT22;9662;53.612;9.914;2022-07-29T11:57:52;26.00;77.30
19058;DHT22;9662;53.612;9.914;2022-07-29T12:00:28;25.80;75.70
19058;DHT22;9662;53.612;9.914;2022-07-29T12:02:56;25.80;76.40
19058;DHT22;9662;53.612;9.914;2022-07-29T12:05:31;26.00;77.90
19058;DHT22;9662;53.612;9.914;2022-07-29T12:08:09;25.80;79.20
19058;DHT22;9662;53.612;9.914;2022-07-29T12:10:37;25.90;76.90
19058;DHT22;9662;53.612;9.914;2022-07-29T12:13:04;25.80;79.20
19058;DHT22;9662;53.612;9.914;2022-07-29T12:15:31;25.90;80.60
19058;DHT22;9662;53.612;9.914;2022-07-29T12:17:59;26.00;77.80
19058;DHT22;9662;53.612;9.914;2022-07-29T12:20:35;25.90;76.60
19058;DHT22;9662;53.612;9.914;2022-07-29T12:23:06;26.10;78.50
19058;DHT22;9662;53.612;9.914;2022-07-29T12:25:34;26.30;77.60
19058;DHT22;9662;53.612;9.914;2022-07-29T12:28:04;26.30;78.40
19058;DHT22;9662;53.612;9.914;2022-07-29T12:30:40;26.30;73.60
19058;DHT22;9662;53.612;9.914;2022-07-29T12:33:28;26.40;77.60
19058;DHT22;9662;53.612;9.914;2022-07-29T12:35:58;26.60;76.20
19058;DHT22;9662;53.612;9.914;2022-07-29T12:38:28;26.50;80.10
19058;DHT22;9662;53.612;9.914;2022-07-29T12:40:55;26.30;78.70
19058;DHT22;9662;53.612;9.914;2022-07-29T12:43:23;26.40;77.40
19058;DHT22;9662;53.612;9.914;2022-07-29T12:45:51;26.40;77.60
19058;DHT22;9662;53.612;9.914;2022-07-29T12:48:33;26.20;80.50
19058;DHT22;9662;53.612;9.914;2022-07-29T12:51:01;26.20;79.00
19058;DHT22;9662;53.612;9.914;2022-07-29T12:53:30;26.00;78.60
19058;DHT22;9662;53.612;9.914;2022-07-29T12:55:57;25.90;76.80
19058;DHT22;9662;53.612;9.914;2022-07-29T12:58:32;26.20;81.40
19058;DHT22;9662;53.612;9.914;2022-07-29T13:01:05;25.70;77.30
19058;DHT22;9662;53.612;9.914;2022-07-29T13:03:45;25.60;80.50
19058;DHT22;9662;53.612;9.914;2022-07-29T13:06:31;26.10;80.90
19058;DHT22;9662;53.612;9.914;2022-07-29T13:09:02;25.60;78.50
19058;DHT22;9662;53.612;9.914;2022-07-29T13:11:30;25.80;84.20
19058;DHT22;9662;53.612;9.914;2022-07-29T13:13:57;25.60;80.30
19058;DHT22;9662;53.612;9.914;2022-07-29T13:16:24;25.70;78.90
19058;DHT22;9662;53.612;9.914;2022-07-29T13:19:06;25.60;85.10
19058;DHT22;9662;53.612;9.914;2022-07-29T13:21:33;25.40;78.60
19058;DHT22;9662;53.612;9.914;2022-07-29T13:24:02;25.50;80.90
19058;DHT22;9662;53.612;9.914;2022-07-29T13:26:29;25.60;80.20
19058;DHT22;9662;53.612;9.914;2022-07-29T13:28:56;25.80;82.80
19058;DHT22;9662;53.612;9.914;2022-07-29T13:31:22;25.70;82.00
19058;DHT22;9662;53.612;9.914;2022-07-29T13:33:49;25.80;81.30
19058;DHT22;9662;53.612;9.914;2022-07-29T13:36:16;25.60;82.80
19058;DHT22;9662;53.612;9.914;2022-07-29T13:38:43;25.50;84.80
19058;DHT22;9662;53.612;9.914;2022-07-29T13:41:11;25.60;87.20
19058;DHT22;9662;53.612;9.914;2022-07-29T13:43:38;25.70;87.80
19058;DHT22;9662;53.612;9.914;2022-07-29T13:46:05;25.30;88.80
19058;DHT22;9662;53.612;9.914;2022-07-29T13:48:32;25.40;89.50
19058;DHT22;9662;53.612;9.914;2022-07-29T13:50:58;25.20;90.30
19058;DHT22;9662;53.612;9.914;2022-07-29T13:53:25;25.30;91.70
19058;DHT22;9662;53.612;9.914;2022-07-29T13:55:53;25.20;90.60
19058;DHT22;9662;53.612;9.914;2022-07-29T13:58:21;25.40;91.10
19058;DHT22;9662;53.612;9.914;2022-07-29T14:00:48;25.00;91.20
19058;DHT22;9662;53.612;9.914;2022-07-29T14:03:15;24.70;91.50
19058;DHT22;9662;53.612;9.914;2022-07-29T14:05:42;24.30;92.50
19058;DHT22;9662;53.612;9.914;2022-07-29T14:08:09;24.30;93.00
19058;DHT22;9662;53.612;9.914;2022-07-29T14:10:35;24.50;93.70
19058;DHT22;9662;53.612;9.914;2022-07-29T14:13:02;24.50;92.80
19058;DHT22;9662;53.612;9.914;2022-07-29T14:15:30;24.50;92.40
19058;DHT22;9662;53.612;9.914;2022-07-29T14:17:57;24.50;93.00
19058;DHT22;9662;53.612;9.914;2022-07-29T14:20:24;24.50;93.80
19058;DHT22;9662;53.612;9.914;2022-07-29T14:22:50;24.70;92.70
19058;DHT22;9662;53.612;9.914;2022-07-29T14:25:17;24.70;92.50
19058;DHT22;9662;53.612;9.914;2022-07-29T14:27:44;24.50;93.20
19058;DHT22;9662;53.612;9.914;2022-07-29T14:30:11;24.40;92.80
19058;DHT22;9662;53.612;9.914;2022-07-29T14:32:39;24.30;92.70
19058;DHT22;9662;53.612;9.914;2022-07-29T14:35:07;24.20;92.90
19058;DHT22;9662;53.612;9.914;2022-07-29T14:37:34;24.10;92.70
19058;DHT22;9662;53.612;9.914;2022-07-29T14:40:01;24.00;93.30
19058;DHT22;9662;53.612;9.914;2022-07-29T14:42:29;24.00;93.30
19058;DHT22;9662;53.612;9.914;2022-07-29T14:44:56;24.10;93.20
19058;DHT22;9662;53.612;9.914;2022-07-29T14:47:23;24.20;93.50
19058;DHT22;9662;53.612;9.914;2022-07-29T14:49:51;24.30;92.90
19058;DHT22;9662;53.612;9.914;2022-07-29T14:52:18;24.50;93.50
19058;DHT22;9662;53.612;9.914;2022-07-29T14:54:45;24.80;93.70
19058;DHT22;9662;53.612;9.914;2022-07-29T14:57:11;24.70;92.00
19058;DHT22;9662;53.612;9.914;2022-07-29T14:59:38;24.70;92.60
19058;DHT22;9662;53.612;9.914;2022-07-29T15:02:05;24.70;93.20
19058;DHT22;9662;53.612;9.914;2022-07-29T15:04:32;24.80;92.10
19058;DHT22;9662;53.612;9.914;2022-07-29T15:07:00;24.70;92.40
19058;DHT22;9662;53.612;9.914;2022-07-29T15:09:27;24.60;92.80
19058;DHT22;9662;53.612;9.914;2022-07-29T15:11:53;24.60;92.80
19058;DHT22;9662;53.612;9.914;2022-07-29T15:14:20;24.50;92.60
19058;DHT22;9662;53.612;9.914;2022-07-29T15:16:47;24.30;92.50
19058;DHT22;9662;53.612;9.914;2022-07-29T15:19:14;24.20;93.00
19058;DHT22;9662;53.612;9.914;2022-07-29T15:21:42;24.10;93.90
19058;DHT22;9662;53.612;9.914;2022-07-29T15:24:10;24.00;93.10
19058;DHT22;9662;53.612;9.914;2022-07-29T15:26:37;24.00;93.30
19058;DHT22;9662;53.612;9.914;2022-07-29T15:29:03;23.90;93.60
19058;DHT22;9662;53.612;9.914;2022-07-29T15:31:30;23.80;94.30
19058;DHT22;9662;53.612;9.914;2022-07-29T15:33:57;23.80;94.60
19058;DHT22;9662;53.612;9.914;2022-07-29T15:36:24;23.80;95.50
19058;DHT22;9662;53.612;9.914;2022-07-29T15:38:52;23.70;95.60
19058;DHT22;9662;53.612;9.914;2022-07-29T15:41:21;23.80;95.30
19058;DHT22;9662;53.612;9.914;2022-07-29T15:43:48;23.60;95.50
19058;DHT22;9662;53.612;9.914;2022-07-29T15:46:17;24.30;95.60
19058;DHT22;9662;53.612;9.914;2022-07-29T15:49:03;23.80;96.00
19058;DHT22;9662;53.612;9.914;2022-07-29T15:51:30;23.90;95.10
19058;DHT22;9662;53.612;9.914;2022-07-29T15:53:57;23.90;95.00
19058;DHT22;9662;53.612;9.914;2022-07-29T15:56:25;23.90;94.90
19058;DHT22;9662;53.612;9.914;2022-07-29T15:58:52;24.10;95.30
19058;DHT22;9662;53.612;9.914;2022-07-29T16:01:19;24.20;95.00
19058;DHT22;9662;53.612;9.914;2022-07-29T16:03:45;24.30;94.30
19058;DHT22;9662;53.612;9.914;2022-07-29T16:06:12;24.30;94.50
19058;DHT22;9662;53.612;9.914;2022-07-29T16:08:39;24.30;94.60